createdAt,value
2018-03-11T00:01:35.921Z,5.40
2018-03-11T00:06:39.176Z,5.30
2018-03-11T00:11:42.406Z,5.20
2018-03-11T00:16:45.616Z,5.10
2018-03-11T00:21:48.946Z,4.90
2018-03-11T00:26:52.191Z,5.00
2018-03-11T00:31:55.419Z,4.90
2018-03-11T00:36:58.627Z,4.80
2018-03-11T00:42:01.927Z,4.70
2018-03-11T00:47:05.153Z,4.80
2018-03-11T00:52:08.368Z,4.90
2018-03-11T00:57:11.620Z,4.80
2018-03-11T01:02:14.845Z,4.40
2018-03-11T01:07:18.061Z,4.30
2018-03-11T01:12:21.362Z,4.30
2018-03-11T01:17:24.626Z,4.00
2018-03-11T01:22:27.823Z,3.90
2018-03-11T01:27:31.439Z,4.00
2018-03-11T01:32:35.074Z,4.20
2018-03-11T01:37:38.293Z,4.20
2018-03-11T01:42:41.509Z,4.40
2018-03-11T01:47:44.716Z,4.50
2018-03-11T01:52:59.784Z,4.70
2018-03-11T01:58:03.013Z,4.50
2018-03-11T02:03:06.239Z,4.50
2018-03-11T02:08:09.568Z,4.40
2018-03-11T02:13:12.786Z,4.30
2018-03-11T02:18:16.386Z,4.50
2018-03-11T02:23:19.599Z,4.50
2018-03-11T02:28:23.200Z,5.10
2018-03-11T02:33:26.515Z,5.10
2018-03-11T02:38:29.725Z,5.30
2018-03-11T02:43:32.921Z,5.60
2018-03-11T02:48:36.112Z,5.70
2018-03-11T02:53:39.312Z,5.80
2018-03-11T02:58:42.525Z,5.60
2018-03-11T03:03:45.727Z,5.20
2018-03-11T03:08:48.945Z,4.90
2018-03-11T03:13:52.259Z,4.70
2018-03-11T03:18:55.470Z,4.30
2018-03-11T03:23:58.773Z,4.20
2018-03-11T03:29:02.090Z,4.30
2018-03-11T03:34:05.683Z,4.20
2018-03-11T03:39:09.006Z,4.30
2018-03-11T03:44:12.748Z,4.50
2018-03-11T03:49:15.953Z,4.50
2018-03-11T03:54:19.151Z,4.30
2018-03-11T03:59:22.758Z,3.90
2018-03-11T04:04:26.461Z,3.70
2018-03-11T04:09:29.687Z,3.70
2018-03-11T04:14:33.298Z,3.40
2018-03-11T04:19:37.159Z,3.30
2018-03-11T04:24:40.366Z,3.20
2018-03-11T04:29:44.162Z,3.10
2018-03-11T04:34:47.367Z,3.00
2018-03-11T04:39:50.581Z,2.90
2018-03-11T04:44:53.801Z,2.90
2018-03-11T04:49:57.044Z,2.90
2018-03-11T04:55:00.272Z,2.80
2018-03-11T05:00:03.910Z,2.70
2018-03-11T05:05:07.278Z,2.70
2018-03-11T05:10:10.585Z,2.90
2018-03-11T05:15:13.779Z,2.80
2018-03-11T05:20:16.996Z,2.70
2018-03-11T05:25:20.737Z,3.10
2018-03-11T05:30:24.337Z,3.20
2018-03-11T05:35:27.962Z,3.20
2018-03-11T05:40:31.577Z,3.10
2018-03-11T05:45:35.789Z,3.00
2018-03-11T05:50:39.013Z,3.10
2018-03-11T05:55:42.607Z,2.80
2018-03-11T06:00:45.821Z,2.90
2018-03-11T06:05:49.059Z,2.70
2018-03-11T06:10:52.296Z,2.80
2018-03-11T06:15:55.524Z,2.80
2018-03-11T06:20:58.750Z,3.10
2018-03-11T06:26:02.364Z,3.60
2018-03-11T06:31:05.565Z,3.60
2018-03-11T06:36:09.375Z,3.50
2018-03-11T06:41:13.875Z,3.50
2018-03-11T06:46:17.116Z,3.50
2018-03-11T06:51:20.334Z,3.60
2018-03-11T06:56:23.930Z,4.00
2018-03-11T07:01:27.140Z,4.00
2018-03-11T07:06:30.457Z,4.20
2018-03-11T07:11:33.657Z,4.60
2018-03-11T07:16:36.933Z,4.80
2018-03-11T07:21:40.149Z,5.10
2018-03-11T07:26:43.347Z,5.40
2018-03-11T07:31:46.572Z,5.60
2018-03-11T07:36:49.788Z,5.60
2018-03-11T07:41:53.499Z,5.40
2018-03-11T07:46:56.742Z,5.40
2018-03-11T07:51:59.985Z,5.60
2018-03-11T07:57:03.279Z,5.70
2018-03-11T08:02:06.479Z,5.80
2018-03-11T08:07:09.707Z,6.10
2018-03-11T08:12:12.944Z,6.30
2018-03-11T08:17:16.276Z,6.60
2018-03-11T08:22:19.476Z,6.80
2018-03-11T08:27:22.692Z,6.90
2018-03-11T08:32:25.909Z,7.00
2018-03-11T08:37:29.120Z,7.00
2018-03-11T08:42:32.369Z,7.20
2018-03-11T08:47:35.620Z,7.20
2018-03-11T08:52:38.904Z,7.30
2018-03-11T08:57:42.700Z,7.40
2018-03-11T09:02:46.316Z,7.60
2018-03-11T09:07:49.623Z,7.60
2018-03-11T09:12:53.239Z,7.60
2018-03-11T09:17:56.453Z,7.60
2018-03-11T09:23:00.053Z,7.70
2018-03-11T09:28:03.282Z,7.70
2018-03-11T09:33:06.895Z,7.90
2018-03-11T09:38:10.184Z,7.90
2018-03-11T09:43:13.496Z,8.10
2018-03-11T09:48:16.709Z,8.30
2018-03-11T09:53:20.415Z,8.90
2018-03-11T09:58:24.246Z,9.30
2018-03-11T10:03:27.542Z,9.30
2018-03-11T10:08:31.139Z,9.90
2018-03-11T10:13:34.359Z,9.90
2018-03-11T10:18:37.576Z,10.10
2018-03-11T10:23:42.193Z,10.80
2018-03-11T10:28:45.409Z,10.80
2018-03-11T10:33:49.103Z,10.30
2018-03-11T10:38:52.620Z,10.30
2018-03-11T10:43:55.844Z,10.00
2018-03-11T10:48:59.565Z,9.60
2018-03-11T10:54:02.870Z,9.60
2018-03-11T10:59:06.091Z,9.80
2018-03-11T11:04:11.579Z,10.30
2018-03-11T11:09:14.930Z,10.30
2018-03-11T11:14:19.251Z,10.60
2018-03-11T11:19:22.539Z,10.50
2018-03-11T11:24:25.883Z,10.30
2018-03-11T11:29:29.141Z,10.30
2018-03-11T11:34:32.389Z,10.50
2018-03-11T11:39:35.700Z,10.30
2018-03-11T11:44:38.947Z,10.10
2018-03-11T11:49:42.221Z,9.50
2018-03-11T11:54:45.875Z,9.10
2018-03-11T11:59:49.141Z,9.10
2018-03-11T12:04:52.758Z,9.10
2018-03-11T12:09:56.389Z,9.10
2018-03-11T12:14:59.671Z,9.10
2018-03-11T12:20:02.888Z,9.30
2018-03-11T12:25:06.690Z,9.60
2018-03-11T12:30:09.907Z,9.60
2018-03-11T12:35:13.111Z,9.70
2018-03-11T12:40:16.361Z,9.90
2018-03-11T12:45:19.730Z,9.80
2018-03-11T12:50:23.452Z,9.90
2018-03-11T12:55:26.685Z,9.90
2018-03-11T13:00:29.862Z,10.00
2018-03-11T13:05:33.555Z,10.10
2018-03-11T13:10:36.740Z,10.10
2018-03-11T13:15:39.904Z,10.20
2018-03-11T13:26:23.955Z,10.20
2018-03-11T13:31:27.125Z,9.80
2018-03-11T13:36:30.289Z,9.70
2018-03-11T13:41:33.979Z,9.90
2018-03-11T13:46:49.265Z,9.90
2018-03-11T13:52:04.335Z,9.70
2018-03-11T14:03:00.540Z,9.80
2018-03-11T14:08:04.247Z,9.70
2018-03-11T14:13:07.509Z,9.70
2018-03-11T14:18:10.820Z,9.70
2018-03-11T14:23:14.036Z,9.50
2018-03-11T14:28:17.241Z,9.60
2018-03-11T14:33:20.435Z,9.60
2018-03-11T14:38:23.657Z,9.60
2018-03-11T14:43:26.887Z,9.50
2018-03-11T14:48:30.098Z,9.60
2018-03-11T14:53:33.713Z,9.80
2018-03-11T14:58:37.327Z,9.90
2018-03-11T15:03:40.941Z,9.90
2018-03-11T15:08:44.549Z,9.90
2018-03-11T15:13:47.782Z,9.90
2018-03-11T15:18:51.008Z,9.90
2018-03-11T15:23:54.281Z,10.00
2018-03-11T15:28:57.893Z,9.90
2018-03-11T15:34:01.507Z,9.90
2018-03-11T15:39:06.007Z,9.90
2018-03-11T15:44:09.204Z,9.90
2018-03-11T15:49:12.420Z,9.90
2018-03-11T15:54:15.624Z,9.90
2018-03-11T15:59:18.828Z,9.90
2018-03-11T16:04:22.043Z,9.80
2018-03-11T16:09:25.582Z,9.70
2018-03-11T16:14:29.194Z,9.70
2018-03-11T16:19:32.407Z,9.70
2018-03-11T16:24:39.724Z,9.60
2018-03-11T16:29:39.161Z,9.60
2018-03-11T16:34:42.411Z,9.60
2018-03-11T16:39:51.273Z,9.50
2018-03-11T16:44:54.503Z,9.50
2018-03-11T16:49:57.737Z,9.40
2018-03-11T16:55:00.960Z,9.40
2018-03-11T17:00:04.680Z,9.40
2018-03-11T17:05:08.370Z,9.40
2018-03-11T17:10:11.585Z,9.40
2018-03-11T17:15:14.851Z,9.30
2018-03-11T17:20:18.063Z,9.40
2018-03-11T17:25:21.517Z,9.40
2018-03-11T17:30:25.159Z,9.40
2018-03-11T17:35:28.508Z,9.40
2018-03-11T17:40:31.749Z,9.40
2018-03-11T17:45:35.385Z,9.40
2018-03-11T17:50:39.388Z,9.40
2018-03-11T17:55:43.029Z,9.30
2018-03-11T18:00:46.311Z,9.20
2018-03-11T18:05:50.004Z,9.00
2018-03-11T18:10:53.228Z,9.00
2018-03-11T18:15:56.834Z,8.90
2018-03-11T18:21:00.465Z,8.90
2018-03-11T18:26:04.177Z,8.90
2018-03-11T18:31:08.700Z,8.90
2018-03-11T18:36:12.454Z,8.90
2018-03-11T18:41:16.189Z,8.80
2018-03-11T18:46:19.525Z,8.80
2018-03-11T18:51:22.814Z,8.80
2018-03-11T18:56:26.238Z,8.60
2018-03-11T19:01:29.855Z,8.40
2018-03-11T19:06:33.591Z,8.30
2018-03-11T19:11:37.301Z,8.30
2018-03-11T19:16:40.679Z,8.30
2018-03-11T19:21:43.892Z,8.30
2018-03-11T19:26:47.496Z,8.20
2018-03-11T19:31:50.813Z,8.20
2018-03-11T19:36:54.454Z,8.00
2018-03-11T19:41:57.737Z,8.00
2018-03-11T19:47:01.104Z,7.90
2018-03-11T19:52:04.448Z,7.70
2018-03-11T19:57:08.104Z,7.50
2018-03-11T20:02:11.540Z,7.30
2018-03-11T20:07:15.558Z,7.30
2018-03-11T20:12:18.786Z,7.30
2018-03-11T20:17:22.172Z,7.30
2018-03-11T20:22:25.871Z,7.40
2018-03-11T20:27:29.093Z,7.40
2018-03-11T20:32:33.767Z,7.40
2018-03-11T20:37:37.619Z,7.40
2018-03-11T20:42:41.263Z,7.30
2018-03-11T20:47:44.816Z,7.30
2018-03-11T20:52:48.111Z,7.30
2018-03-11T20:57:51.448Z,7.20
2018-03-11T21:02:54.751Z,7.20
2018-03-11T21:07:58.380Z,7.20
2018-03-11T21:13:01.742Z,7.20
2018-03-11T21:18:05.049Z,7.00
2018-03-11T21:23:08.379Z,6.90
2018-03-11T21:28:12.066Z,6.70
2018-03-11T21:33:15.281Z,6.70
2018-03-11T21:38:18.589Z,6.80
2018-03-11T21:43:21.955Z,7.00
2018-03-11T21:48:25.267Z,7.10
2018-03-11T21:53:29.316Z,7.20
2018-03-11T21:58:33.598Z,7.20
2018-03-11T22:03:36.834Z,7.20
2018-03-11T22:08:40.659Z,7.20
2018-03-11T22:13:44.131Z,7.20
2018-03-11T22:18:47.359Z,7.20
2018-03-11T22:23:51.164Z,6.90
2018-03-11T22:28:54.402Z,6.90
2018-03-11T22:33:57.979Z,6.90
2018-03-11T22:39:01.400Z,6.90
2018-03-11T22:44:04.615Z,6.90
2018-03-11T22:49:08.895Z,6.70
2018-03-11T22:54:12.311Z,6.40
2018-03-11T22:59:15.822Z,6.40
2018-03-11T23:04:19.579Z,6.30
2018-03-11T23:09:22.782Z,6.30
2018-03-11T23:14:26.666Z,6.30
2018-03-11T23:19:30.028Z,6.40
2018-03-11T23:24:33.248Z,6.40
2018-03-11T23:29:36.473Z,6.30
2018-03-11T23:34:40.016Z,6.30
2018-03-11T23:39:45.939Z,6.10
2018-03-11T23:44:49.158Z,6.00
2018-03-11T23:49:53.969Z,6.00
2018-03-11T23:54:57.649Z,6.00
